Sunland, CA (91040)

7:18 PM PST on November 23, 2014 (GMT -0800)
Lake View Terrace | Change Station
CLOSE
Current Station
Personal Weather Station
Location: Los Angeles, CA
Elevation: 1220 ft
Nearby Weather Stations
Active Advisory: Fire Weather Watch

Elev 1220 ft 34.28 °N, 118.35 °W | Updated 13 minutes ago

Mostly Cloudy
Mostly Cloudy
66.9 °F
Feels Like 66.9 °F
N
3.2
Wind Variable Wind from North

Today
High -- | Low -- °F
--% Chance of Precip.
Yesterday
High -- | Low -- °F
Precip. -- in
6:34 AM 4:45 PM
Waxing Crescent, 3% visible
Pressure 30.16 in
Visibility 20.0 miles
Clouds Mostly Cloudy 15000 ft
Dew Point 9 °F
Humidity 10%
Rainfall 0.00 in
Snow Depth Not available.
UV 0 out of 12
Pollen 2.60 out of 12
Air Quality Not available.
Flu Activity Not available.
METAR KWHP 240247Z 35008KT 20SM BKN150 20/M17 A3016

More Conditions Fewer Conditions

Pressure 30.16 in
Visibility 20.0 miles
Clouds Mostly Cloudy 15000 ft
Dew Point 9 °F
Humidity 10%
Rainfall 0.00 in
Snow Depth Not available.
UV 0 out of 12
Pollen 2.60 out of 12
Air Quality Not available.
Flu Activity Not available.
METAR KWHP 240247Z 35008KT 20SM BKN150 20/M17 A3016

More Conditions Fewer Conditions

10-Day Weather Forecast

Almanac

Astronomy

Nov. 23, 2014 Rise Set
Actual Time
Civil Twilight
Nautical Twilight
Astronomical Twilight
Moon
Length of Visible Light
Length of Day
Tomorrow will be .
, % of the Moon is Illuminated

Today's Extremes

State Highs State Lows

Community

WunderPhotos

Upload Photos

1,773,257 photos uploaded!

WunderBlogs® & News

Nearby

Air Quality

  Air Quality AQ Index Pollutant
Not available.

Snow Depth

Station Depth Elevation

Earthquake Activity

City Distance Mag. Time & Date
Minimum magnitude displayed is 2.5.

Coastal Water Temperatures

Place Temperature

Nearby Weather Stations